createdAt,value
2022-09-28T00:00:27.432Z,5.94
2022-09-28T00:02:57.757Z,5.92
2022-09-28T00:05:27.103Z,5.97
2022-09-28T00:07:54.402Z,5.94
2022-09-28T00:10:23.211Z,5.93
2022-09-28T00:12:55.581Z,5.94
2022-09-28T00:15:22.732Z,6.00
2022-09-28T00:17:49.412Z,5.95
2022-09-28T00:20:17.422Z,5.86
2022-09-28T00:22:44.070Z,5.90
2022-09-28T00:25:10.765Z,5.80
2022-09-28T00:27:37.494Z,5.77
2022-09-28T00:30:04.763Z,5.73
2022-09-28T00:32:31.451Z,5.69
2022-09-28T00:34:58.179Z,5.80
2022-09-28T00:37:24.845Z,5.77
2022-09-28T00:39:51.832Z,5.79
2022-09-28T00:42:21.832Z,5.73
2022-09-28T00:44:56.095Z,5.71
2022-09-28T00:47:58.956Z,5.57
2022-09-28T00:50:35.919Z,5.38
2022-09-28T00:53:08.982Z,5.32
2022-09-28T00:55:43.411Z,5.37
2022-09-28T00:58:12.352Z,5.27
2022-09-28T01:00:43.189Z,5.25
2022-09-28T01:03:10.341Z,5.20
2022-09-28T01:05:37.558Z,5.20
2022-09-28T01:08:04.841Z,5.31
2022-09-28T01:10:31.792Z,5.25
2022-09-28T01:12:59.367Z,5.01
2022-09-28T01:15:27.893Z,5.13
2022-09-28T01:17:58.602Z,5.23
2022-09-28T01:20:44.651Z,5.31
2022-09-28T01:23:37.952Z,5.34
2022-09-28T01:26:19.851Z,5.36
2022-09-28T01:28:47.950Z,5.42
2022-09-28T01:31:16.455Z,5.47
2022-09-28T01:33:57.170Z,5.50
2022-09-28T01:36:42.871Z,5.53
2022-09-28T01:39:11.842Z,5.60
2022-09-28T01:41:40.534Z,5.63
2022-09-28T01:44:11.732Z,5.65
2022-09-28T01:46:42.248Z,5.59
2022-09-28T01:49:13.305Z,5.58
2022-09-28T01:52:00.410Z,5.60
2022-09-28T01:54:33.504Z,5.60
2022-09-28T01:57:23.646Z,5.70
2022-09-28T02:00:11.977Z,5.45
2022-09-28T02:03:11.073Z,5.63
2022-09-28T02:05:40.315Z,5.64
2022-09-28T02:08:13.982Z,5.68
2022-09-28T02:11:03.051Z,5.75
2022-09-28T02:13:50.013Z,5.75
2022-09-28T02:16:31.416Z,5.76
2022-09-28T02:18:58.392Z,5.81
2022-09-28T02:21:44.112Z,5.84
2022-09-28T02:24:20.665Z,5.81
2022-09-28T02:26:49.473Z,5.67
2022-09-28T02:29:16.728Z,5.69
2022-09-28T02:31:43.848Z,5.72
2022-09-28T02:34:10.697Z,5.61
2022-09-28T02:36:37.490Z,5.54
2022-09-28T02:39:04.341Z,5.58
2022-09-28T02:41:51.763Z,6.01
2022-09-28T02:44:58.709Z,5.52
2022-09-28T02:47:56.013Z,5.49
2022-09-28T02:50:35.834Z,5.42
2022-09-28T02:53:21.300Z,5.52
2022-09-28T02:56:10.721Z,5.45
2022-09-28T02:59:02.374Z,5.51
2022-09-28T03:01:33.953Z,5.56
2022-09-28T03:04:10.211Z,5.54
2022-09-28T03:06:39.709Z,5.79
2022-09-28T03:09:12.878Z,5.51
2022-09-28T03:11:44.622Z,5.53
2022-09-28T03:14:11.769Z,5.63
2022-09-28T03:16:38.588Z,5.49
2022-09-28T03:19:05.302Z,5.40
2022-09-28T03:21:32.002Z,5.50
2022-09-28T03:23:58.693Z,5.56
2022-09-28T03:26:25.435Z,5.47
2022-09-28T03:28:52.132Z,5.57
2022-09-28T03:31:18.831Z,5.58
2022-09-28T03:33:45.562Z,5.48
2022-09-28T03:36:14.732Z,5.34
2022-09-28T03:38:41.513Z,5.33
2022-09-28T03:41:08.194Z,5.23
2022-09-28T03:43:34.883Z,5.12
2022-09-28T03:46:02.371Z,5.10
2022-09-28T03:48:34.972Z,4.91
2022-09-28T03:51:04.617Z,4.90
2022-09-28T03:53:33.003Z,4.84
2022-09-28T03:56:08.114Z,4.82
2022-09-28T03:58:35.164Z,4.58
2022-09-28T04:01:07.299Z,4.46
2022-09-28T04:03:34.462Z,4.52
2022-09-28T04:06:01.425Z,4.63
2022-09-28T04:08:28.484Z,4.65
2022-09-28T04:10:59.300Z,4.73
2022-09-28T04:13:28.183Z,4.64
2022-09-28T04:15:56.218Z,4.63
2022-09-28T04:18:23.395Z,4.53
2022-09-28T04:21:03.691Z,4.41
2022-09-28T04:23:30.994Z,4.35
2022-09-28T04:25:57.754Z,4.36
2022-09-28T04:28:43.549Z,4.35
2022-09-28T04:31:18.328Z,4.33
2022-09-28T04:33:45.194Z,4.22
2022-09-28T04:36:11.968Z,4.13
2022-09-28T04:38:52.422Z,4.09
2022-09-28T04:41:21.335Z,4.18
2022-09-28T04:43:48.177Z,4.11
2022-09-28T04:46:14.960Z,4.12
2022-09-28T04:48:41.673Z,4.13
2022-09-28T04:51:08.293Z,4.15
2022-09-28T04:53:35.216Z,4.09
2022-09-28T04:56:04.377Z,4.00
2022-09-28T04:58:31.454Z,3.93
2022-09-28T05:01:00.317Z,3.89
2022-09-28T05:03:27.367Z,3.90
2022-09-28T05:05:54.179Z,3.75
2022-09-28T05:08:20.969Z,3.67
2022-09-28T05:10:47.799Z,3.79
2022-09-28T05:13:14.873Z,4.02
2022-09-28T05:15:42.709Z,4.22
2022-09-28T05:18:09.450Z,4.22
2022-09-28T05:20:40.645Z,4.27
2022-09-28T05:23:09.929Z,4.40
2022-09-28T05:25:36.727Z,4.37
2022-09-28T05:28:03.596Z,4.39
2022-09-28T05:30:30.858Z,4.42
2022-09-28T05:32:57.574Z,4.45
2022-09-28T05:35:24.441Z,4.48
2022-09-28T05:37:51.258Z,4.48
2022-09-28T05:40:18.951Z,4.57
2022-09-28T05:42:45.914Z,4.65
2022-09-28T05:45:12.646Z,4.59
2022-09-28T05:47:43.388Z,4.66
2022-09-28T05:50:12.219Z,4.61
2022-09-28T05:52:38.976Z,4.67
2022-09-28T05:55:07.130Z,4.63
2022-09-28T05:57:34.298Z,4.72
2022-09-28T06:00:01.287Z,4.78
2022-09-28T06:02:28.206Z,4.79
2022-09-28T06:04:55.878Z,4.91
2022-09-28T06:07:23.572Z,4.80
2022-09-28T06:09:50.380Z,4.79
2022-09-28T06:12:17.494Z,5.02
2022-09-28T06:14:44.928Z,4.99
2022-09-28T06:17:11.788Z,5.03
2022-09-28T06:19:39.159Z,5.18
2022-09-28T06:22:05.968Z,5.19
2022-09-28T06:24:32.740Z,4.93
2022-09-28T06:26:59.659Z,5.14
2022-09-28T06:29:26.474Z,5.15
2022-09-28T06:31:53.309Z,5.17
2022-09-28T06:34:21.617Z,5.32
2022-09-28T06:36:49.046Z,5.74
2022-09-28T06:39:15.771Z,5.89
2022-09-28T06:41:42.567Z,6.13
2022-09-28T06:44:09.448Z,6.16
2022-09-28T06:46:38.324Z,6.47
2022-09-28T06:49:06.438Z,6.73
2022-09-28T06:51:33.258Z,6.72
2022-09-28T06:54:00.079Z,7.02
2022-09-28T06:56:31.982Z,6.89
2022-09-28T06:58:59.824Z,6.81
2022-09-28T07:01:26.686Z,6.94
2022-09-28T07:03:55.719Z,6.69
2022-09-28T07:06:24.378Z,6.21
2022-09-28T07:09:00.380Z,6.23
2022-09-28T07:11:41.905Z,6.14
2022-09-28T07:14:13.520Z,6.08
2022-09-28T07:17:09.119Z,5.82
2022-09-28T07:19:32.938Z,5.79
2022-09-28T07:22:05.282Z,5.62
2022-09-28T07:24:32.434Z,5.70
2022-09-28T07:26:59.624Z,5.80
2022-09-28T07:29:26.393Z,5.98
2022-09-28T07:31:54.173Z,5.84
2022-09-28T07:34:23.212Z,5.88
2022-09-28T07:36:49.918Z,5.97
2022-09-28T07:39:18.907Z,6.22
2022-09-28T07:41:45.644Z,6.65
2022-09-28T07:44:12.430Z,6.67
2022-09-28T07:46:39.097Z,7.03
2022-09-28T07:49:08.464Z,6.83
2022-09-28T07:51:38.407Z,7.12
2022-09-28T07:54:06.729Z,7.16
2022-09-28T07:56:34.956Z,7.23
2022-09-28T07:59:01.678Z,7.30
2022-09-28T08:01:30.736Z,7.53
2022-09-28T08:03:57.605Z,7.91
2022-09-28T08:06:24.259Z,7.89
2022-09-28T08:08:52.938Z,8.05
2022-09-28T08:11:19.815Z,8.66
2022-09-28T08:13:47.505Z,8.33
2022-09-28T08:16:14.305Z,8.55
2022-09-28T08:18:41.110Z,8.88
2022-09-28T08:21:26.697Z,8.81
2022-09-28T08:23:53.423Z,8.77
2022-09-28T08:26:20.143Z,8.81
2022-09-28T08:28:47.942Z,9.28
2022-09-28T08:31:14.906Z,9.74
2022-09-28T08:33:44.657Z,9.30
2022-09-28T08:36:11.464Z,9.18
2022-09-28T08:38:38.264Z,8.81
2022-09-28T08:41:28.436Z,9.25
2022-09-28T08:44:11.464Z,9.34
2022-09-28T08:46:42.957Z,9.68
2022-09-28T08:49:31.330Z,9.71
2022-09-28T08:52:09.715Z,9.99
2022-09-28T08:54:56.269Z,9.87
2022-09-28T08:57:56.497Z,9.91
2022-09-28T09:00:33.064Z,9.91
2022-09-28T09:03:04.585Z,10.23
2022-09-28T09:06:06.507Z,10.39
2022-09-28T09:09:11.649Z,11.61
2022-09-28T09:12:06.505Z,11.53
2022-09-28T09:14:39.399Z,11.92
2022-09-28T09:17:21.285Z,11.71
2022-09-28T09:19:47.985Z,11.60
2022-09-28T09:22:28.048Z,11.73
2022-09-28T09:25:18.343Z,11.58
2022-09-28T09:28:09.586Z,11.24
2022-09-28T09:30:49.068Z,12.10
2022-09-28T09:33:30.678Z,12.23
2022-09-28T09:36:10.550Z,12.70
2022-09-28T09:38:58.562Z,12.59
2022-09-28T09:42:02.818Z,13.15
2022-09-28T09:44:48.930Z,13.15
2022-09-28T09:47:38.304Z,13.23
2022-09-28T09:50:29.967Z,13.18
2022-09-28T09:53:18.397Z,12.72
2022-09-28T09:55:54.947Z,12.82
2022-09-28T09:58:32.958Z,12.75
2022-09-28T10:01:06.618Z,12.27
2022-09-28T10:03:35.376Z,12.41
2022-09-28T10:06:09.538Z,12.74
2022-09-28T10:08:42.029Z,12.74
2022-09-28T10:11:15.866Z,12.71
2022-09-28T10:13:43.478Z,12.87
2022-09-28T10:16:10.439Z,12.34
2022-09-28T10:18:37.943Z,12.45
2022-09-28T10:21:04.835Z,12.72
2022-09-28T10:23:34.131Z,12.80
2022-09-28T10:26:04.650Z,12.98
2022-09-28T10:28:43.665Z,12.97
2022-09-28T10:31:48.429Z,12.79
2022-09-28T10:34:19.067Z,12.65
2022-09-28T10:36:52.660Z,12.87
2022-09-28T10:39:29.321Z,13.22
2022-09-28T10:41:56.242Z,13.41
2022-09-28T10:44:23.428Z,13.79
2022-09-28T10:47:01.917Z,14.36
2022-09-28T10:49:32.285Z,14.44
2022-09-28T10:51:59.069Z,14.48
2022-09-28T10:54:28.405Z,15.06
2022-09-28T10:56:56.845Z,15.19
2022-09-28T10:59:30.406Z,14.95
2022-09-28T11:02:03.042Z,14.81
2022-09-28T11:04:38.801Z,14.91
2022-09-28T11:07:20.989Z,15.12
2022-09-28T11:09:49.153Z,14.88
2022-09-28T11:12:19.737Z,14.53
2022-09-28T11:14:47.329Z,15.02
2022-09-28T11:17:34.289Z,15.21
2022-09-28T11:20:26.080Z,15.36
2022-09-28T11:22:56.456Z,15.23
2022-09-28T11:25:25.866Z,15.73
2022-09-28T11:27:52.653Z,15.51
2022-09-28T11:30:25.508Z,15.22
2022-09-28T11:32:54.932Z,15.18
2022-09-28T11:35:25.685Z,15.40
2022-09-28T11:38:11.218Z,15.92
2022-09-28T11:41:16.546Z,16.49
2022-09-28T11:43:48.466Z,16.65
2022-09-28T11:46:32.882Z,16.77
2022-09-28T11:49:33.924Z,16.52
2022-09-28T11:52:05.878Z,16.92
2022-09-28T11:54:44.117Z,16.90
2022-09-28T11:57:34.676Z,16.72
2022-09-28T12:00:12.545Z,16.37
2022-09-28T12:02:44.696Z,16.49
2022-09-28T12:05:25.293Z,16.18
2022-09-28T12:07:58.204Z,17.03
2022-09-28T12:10:51.884Z,16.70
2022-09-28T12:13:22.774Z,17.12
2022-09-28T12:18:56.930Z,17.91
2022-09-28T12:21:32.995Z,18.23
2022-09-28T12:24:07.363Z,18.02
2022-09-28T12:26:44.459Z,17.83
2022-09-28T12:29:18.644Z,17.70
2022-09-28T12:31:57.123Z,17.37
2022-09-28T12:34:23.951Z,17.63
2022-09-28T12:37:14.508Z,17.78
2022-09-28T12:39:58.576Z,18.38
2022-09-28T12:42:31.724Z,18.42
2022-09-28T12:45:21.394Z,18.11
2022-09-28T12:48:14.345Z,18.05
2022-09-28T12:51:05.816Z,17.44
2022-09-28T12:54:04.220Z,17.65
2022-09-28T12:57:07.976Z,17.78
2022-09-28T12:59:38.755Z,17.58
2022-09-28T13:02:15.058Z,17.89
2022-09-28T13:05:02.176Z,18.16
2022-09-28T13:07:37.285Z,18.36
2022-09-28T13:10:22.755Z,18.16
2022-09-28T13:13:11.175Z,18.28
2022-09-28T13:16:06.957Z,17.74
2022-09-28T13:19:00.061Z,17.68
2022-09-28T13:21:49.925Z,17.59
2022-09-28T13:24:32.688Z,17.64
2022-09-28T13:27:07.367Z,18.31
2022-09-28T13:29:35.117Z,18.07
2022-09-28T13:32:03.407Z,18.12
2022-09-28T13:34:33.322Z,17.95
2022-09-28T13:37:19.025Z,17.99
2022-09-28T13:39:45.750Z,17.50
2022-09-28T13:42:24.458Z,17.31
2022-09-28T13:45:25.133Z,17.40
2022-09-28T13:47:54.328Z,17.12
2022-09-28T13:50:28.985Z,16.92
2022-09-28T13:53:36.935Z,16.88
2022-09-28T13:56:42.142Z,16.64
2022-09-28T13:59:08.829Z,16.65
2022-09-28T14:01:41.587Z,16.58
2022-09-28T14:04:14.457Z,16.58
2022-09-28T14:07:10.678Z,16.38
2022-09-28T14:10:15.248Z,16.31
2022-09-28T14:12:50.447Z,16.13
2022-09-28T14:15:29.596Z,16.01
2022-09-28T14:18:13.513Z,16.08
2022-09-28T14:20:50.957Z,15.89
2022-09-28T14:23:39.500Z,15.93
2022-09-28T14:26:41.867Z,15.92
2022-09-28T14:29:28.906Z,15.76
2022-09-28T14:32:04.295Z,15.66
2022-09-28T14:34:37.048Z,15.68
2022-09-28T14:37:24.807Z,15.55
2022-09-28T14:40:20.610Z,15.49
2022-09-28T14:43:25.576Z,15.32
2022-09-28T14:46:15.094Z,15.18
2022-09-28T14:48:49.115Z,15.09
2022-09-28T14:51:24.865Z,15.06
2022-09-28T14:53:55.995Z,15.00
2022-09-28T14:56:22.805Z,14.99
2022-09-28T14:58:55.738Z,14.96
2022-09-28T15:01:24.895Z,14.98
2022-09-28T15:03:55.282Z,15.07
2022-09-28T15:06:25.813Z,14.97
2022-09-28T15:08:52.919Z,14.82
2022-09-28T15:11:24.959Z,14.79
2022-09-28T15:13:55.673Z,14.69
2022-09-28T15:16:23.966Z,14.53
2022-09-28T15:19:43.263Z,14.48
2022-09-28T15:22:20.643Z,14.35
2022-09-28T15:25:01.359Z,14.33
2022-09-28T15:27:38.954Z,14.37
2022-09-28T15:30:23.715Z,14.37
2022-09-28T15:32:50.936Z,14.33
2022-09-28T15:35:35.804Z,14.34
2022-09-28T15:38:04.412Z,14.39
2022-09-28T15:40:35.813Z,14.29
2022-09-28T15:43:03.845Z,14.23
2022-09-28T15:45:32.377Z,14.15
2022-09-28T15:48:20.206Z,14.11
2022-09-28T15:51:11.948Z,13.96
2022-09-28T15:54:09.471Z,13.90
2022-09-28T15:56:54.948Z,13.78
2022-09-28T15:59:27.771Z,13.71
2022-09-28T16:02:10.747Z,13.75
2022-09-28T16:04:57.024Z,13.71
2022-09-28T16:07:27.746Z,13.60
2022-09-28T16:09:58.685Z,13.67
2022-09-28T16:12:48.161Z,13.64
2022-09-28T16:15:20.513Z,13.44
2022-09-28T16:18:19.134Z,13.54
2022-09-28T16:20:50.046Z,13.44
2022-09-28T16:23:16.677Z,13.28
2022-09-28T16:25:58.908Z,13.16
2022-09-28T16:28:30.420Z,13.05
2022-09-28T16:31:14.323Z,12.96
2022-09-28T16:33:54.185Z,12.92
2022-09-28T16:36:22.584Z,12.94
2022-09-28T16:38:49.865Z,12.91
2022-09-28T16:41:20.779Z,12.84
2022-09-28T16:43:47.854Z,12.84
2022-09-28T16:46:18.048Z,12.71
2022-09-28T16:48:48.849Z,12.53
2022-09-28T16:51:16.397Z,12.49
2022-09-28T16:54:02.077Z,12.54
2022-09-28T16:56:29.097Z,12.50
2022-09-28T16:58:56.256Z,12.55
2022-09-28T17:01:24.104Z,12.46
2022-09-28T17:03:51.411Z,12.40
2022-09-28T17:06:20.108Z,12.45
2022-09-28T17:08:47.044Z,12.37
2022-09-28T17:11:23.661Z,12.30
2022-09-28T17:13:51.976Z,12.31
2022-09-28T17:16:37.072Z,12.23
2022-09-28T17:19:18.931Z,12.02
2022-09-28T17:21:46.352Z,11.98
2022-09-28T17:24:13.378Z,12.01
2022-09-28T17:26:42.379Z,12.03
2022-09-28T17:29:14.686Z,11.92
2022-09-28T17:31:43.054Z,12.02
2022-09-28T17:34:11.794Z,11.86
2022-09-28T17:36:39.043Z,11.91
2022-09-28T17:39:06.807Z,12.09
2022-09-28T17:41:34.446Z,12.02
2022-09-28T17:44:03.085Z,11.86
2022-09-28T17:46:33.656Z,11.90
2022-09-28T17:49:02.359Z,11.98
2022-09-28T17:51:31.445Z,11.91
2022-09-28T17:54:00.974Z,11.82
2022-09-28T17:56:32.269Z,11.86
2022-09-28T17:59:01.354Z,11.86
2022-09-28T18:01:34.204Z,11.81
2022-09-28T18:04:03.333Z,11.88
2022-09-28T18:06:30.262Z,11.80
2022-09-28T18:08:57.084Z,11.80
2022-09-28T18:11:25.909Z,11.84
2022-09-28T18:13:52.788Z,11.88
2022-09-28T18:16:20.542Z,11.87
2022-09-28T18:18:47.955Z,11.83
2022-09-28T18:21:14.758Z,11.86
2022-09-28T18:23:41.555Z,11.75
2022-09-28T18:26:12.419Z,11.78
2022-09-28T18:28:39.843Z,11.72
2022-09-28T18:31:11.292Z,11.79
2022-09-28T18:33:38.466Z,11.76
2022-09-28T18:36:07.245Z,11.72
2022-09-28T18:38:38.235Z,11.70
2022-09-28T18:41:15.915Z,11.70
2022-09-28T18:43:48.937Z,11.62
2022-09-28T18:46:18.370Z,11.60
2022-09-28T18:48:46.515Z,11.58
2022-09-28T18:51:13.660Z,11.58
2022-09-28T18:53:40.865Z,11.61
2022-09-28T18:56:09.404Z,11.59
2022-09-28T18:58:37.542Z,11.60
2022-09-28T19:01:29.486Z,11.55
2022-09-28T19:03:59.724Z,11.59
2022-09-28T19:06:26.584Z,11.57
2022-09-28T19:08:55.651Z,11.59
2022-09-28T19:11:22.903Z,11.55
2022-09-28T19:13:50.674Z,11.46
2022-09-28T19:16:20.773Z,11.35
2022-09-28T19:18:48.275Z,11.40
2022-09-28T19:21:15.798Z,11.42
2022-09-28T19:23:48.999Z,11.48
2022-09-28T19:26:20.459Z,11.43
2022-09-28T19:28:47.964Z,11.41
2022-09-28T19:31:14.671Z,11.34
2022-09-28T19:33:41.905Z,11.38
2022-09-28T19:36:10.723Z,11.39
2022-09-28T19:38:38.862Z,11.38
2022-09-28T19:41:13.338Z,11.36
2022-09-28T19:43:43.813Z,11.43
2022-09-28T19:46:10.889Z,11.37
2022-09-28T19:48:37.746Z,11.38
2022-09-28T19:51:06.385Z,11.39
2022-09-28T19:53:36.781Z,11.23
2022-09-28T19:56:05.701Z,11.18
2022-09-28T19:58:35.383Z,11.19
2022-09-28T20:01:08.356Z,11.29
2022-09-28T20:03:35.429Z,11.26
2022-09-28T20:06:02.511Z,11.32
2022-09-28T20:08:32.456Z,11.31
2022-09-28T20:11:00.026Z,11.24
2022-09-28T20:13:32.012Z,11.27
2022-09-28T20:16:14.354Z,11.23
2022-09-28T20:18:52.843Z,11.22
2022-09-28T20:21:24.943Z,11.13
2022-09-28T20:23:57.470Z,11.12
2022-09-28T20:26:26.425Z,11.13
2022-09-28T20:28:53.959Z,11.15
2022-09-28T20:31:22.751Z,11.21
2022-09-28T20:33:50.031Z,11.13
2022-09-28T20:36:22.736Z,11.10
2022-09-28T20:38:51.209Z,11.01
2022-09-28T20:41:19.763Z,11.00
2022-09-28T20:43:47.972Z,11.08
2022-09-28T20:46:15.015Z,11.04
2022-09-28T20:48:41.610Z,11.12
2022-09-28T20:51:12.222Z,11.05
2022-09-28T20:53:40.472Z,11.02
2022-09-28T20:56:11.417Z,10.92
2022-09-28T20:58:41.116Z,10.95
2022-09-28T21:01:08.061Z,10.91
2022-09-28T21:03:35.739Z,10.89
2022-09-28T21:06:03.062Z,10.93
2022-09-28T21:08:30.520Z,10.86
2022-09-28T21:10:57.691Z,10.88
2022-09-28T21:13:25.309Z,10.81
2022-09-28T21:15:52.175Z,10.79
2022-09-28T21:18:20.336Z,10.77
2022-09-28T21:20:48.570Z,10.88
2022-09-28T21:23:23.957Z,10.79
2022-09-28T21:26:01.203Z,10.70
2022-09-28T21:28:27.763Z,10.66
2022-09-28T21:30:54.422Z,10.69
2022-09-28T21:33:21.010Z,10.65
2022-09-28T21:35:47.643Z,10.59
2022-09-28T21:38:14.212Z,10.55
2022-09-28T21:40:41.094Z,10.57
2022-09-28T21:43:07.762Z,10.57
2022-09-28T21:45:34.351Z,10.53
2022-09-28T21:48:01.168Z,10.44
2022-09-28T21:50:27.778Z,10.46
2022-09-28T21:52:55.555Z,10.40
2022-09-28T21:55:23.621Z,10.29
2022-09-28T21:57:51.055Z,10.27
2022-09-28T22:00:25.045Z,10.26
2022-09-28T22:02:51.795Z,10.28
2022-09-28T22:05:19.317Z,10.28
2022-09-28T22:07:46.021Z,10.32
2022-09-28T22:10:14.362Z,10.38
2022-09-28T22:12:41.241Z,10.34
2022-09-28T22:15:08.413Z,10.31
2022-09-28T22:17:35.015Z,10.30
2022-09-28T22:20:01.764Z,10.28
2022-09-28T22:22:29.261Z,10.23
2022-09-28T22:24:56.220Z,10.22
2022-09-28T22:27:24.083Z,10.15
2022-09-28T22:29:51.187Z,10.13
2022-09-28T22:32:17.863Z,10.17
2022-09-28T22:34:44.551Z,10.10
2022-09-28T22:37:11.236Z,10.10
2022-09-28T22:39:38.030Z,10.15
2022-09-28T22:42:04.953Z,10.16
2022-09-28T22:44:31.564Z,10.14
2022-09-28T22:46:58.209Z,10.09
2022-09-28T22:49:24.813Z,10.02
2022-09-28T22:51:52.185Z,9.91
2022-09-28T22:54:18.887Z,9.81
2022-09-28T22:56:45.882Z,9.95
2022-09-28T22:59:12.525Z,9.91
2022-09-28T23:01:40.580Z,9.95
2022-09-28T23:04:09.186Z,10.00
2022-09-28T23:06:35.828Z,10.03
2022-09-28T23:09:02.658Z,9.96
2022-09-28T23:11:29.709Z,9.83
2022-09-28T23:13:58.336Z,9.83
2022-09-28T23:16:26.852Z,9.70
2022-09-28T23:18:55.144Z,9.62
2022-09-28T23:21:23.676Z,9.62
2022-09-28T23:23:56.224Z,9.67
2022-09-28T23:26:27.654Z,9.47
2022-09-28T23:28:55.506Z,9.25
2022-09-28T23:31:24.860Z,9.12
2022-09-28T23:33:52.059Z,9.08
2022-09-28T23:36:18.809Z,9.18
2022-09-28T23:38:45.505Z,9.16
2022-09-28T23:41:12.232Z,9.19
2022-09-28T23:43:38.916Z,9.15
2022-09-28T23:46:06.408Z,9.10
2022-09-28T23:48:35.044Z,9.14
2022-09-28T23:51:02.415Z,9.14
2022-09-28T23:53:29.594Z,9.09
2022-09-28T23:55:56.325Z,9.06
2022-09-28T23:58:23.106Z,9.01
